createdAt,value
2022-11-17T00:01:55.718Z,4.60
2022-11-17T00:04:26.838Z,4.57
2022-11-17T00:06:57.084Z,4.53
2022-11-17T00:09:26.763Z,4.73
2022-11-17T00:12:13.781Z,4.60
2022-11-17T00:14:43.521Z,4.57
2022-11-17T00:17:14.572Z,4.50
2022-11-17T00:20:01.706Z,4.10
2022-11-17T00:22:33.181Z,3.40
2022-11-17T00:25:02.641Z,4.07
2022-11-17T00:27:32.080Z,4.63
2022-11-17T00:30:01.530Z,5.20
2022-11-17T00:32:48.655Z,5.60
2022-11-17T00:35:18.259Z,5.03
2022-11-17T00:38:05.239Z,5.10
2022-11-17T00:40:34.699Z,4.33
2022-11-17T00:43:04.136Z,5.50
2022-11-17T00:45:33.598Z,5.40
2022-11-17T00:48:03.938Z,5.27
2022-11-17T00:50:33.420Z,5.20
2022-11-17T00:53:02.877Z,5.37
2022-11-17T00:55:32.368Z,5.60
2022-11-17T00:58:01.862Z,5.77
2022-11-17T01:00:31.329Z,4.53
2022-11-17T01:03:00.774Z,4.53
2022-11-17T01:05:33.058Z,5.23
2022-11-17T01:08:01.396Z,5.40
2022-11-17T01:10:30.929Z,5.37
2022-11-17T01:13:00.377Z,6.17
2022-11-17T01:15:30.071Z,5.37
2022-11-17T01:17:59.514Z,4.10
2022-11-17T01:20:29.020Z,5.30
2022-11-17T01:22:58.470Z,4.97
2022-11-17T01:25:27.935Z,5.17
2022-11-17T01:27:57.381Z,5.40
2022-11-17T01:30:26.837Z,4.83
2022-11-17T01:32:56.282Z,5.37
2022-11-17T01:35:25.729Z,8.33
2022-11-17T01:37:55.183Z,5.00
2022-11-17T01:40:24.943Z,5.03
2022-11-17T01:42:54.402Z,4.90
2022-11-17T01:45:26.982Z,5.07
2022-11-17T01:48:00.366Z,5.13
2022-11-17T01:50:37.013Z,5.17
2022-11-17T01:53:13.978Z,4.90
2022-11-17T01:55:51.288Z,4.53
2022-11-17T01:58:25.663Z,4.30
2022-11-17T02:00:57.067Z,5.30
2022-11-17T02:03:29.015Z,5.53
2022-11-17T02:06:22.562Z,4.20
2022-11-17T02:08:54.822Z,4.30
2022-11-17T02:11:26.488Z,4.50
2022-11-17T02:13:57.675Z,4.10
2022-11-17T02:16:27.139Z,5.53
2022-11-17T02:18:56.574Z,4.77
2022-11-17T02:22:03.053Z,4.33
2022-11-17T02:25:27.480Z,4.50
2022-11-17T02:28:01.622Z,4.67
2022-11-17T02:30:41.204Z,5.07
2022-11-17T02:33:20.296Z,5.67
2022-11-17T02:36:05.747Z,5.70
2022-11-17T02:38:54.743Z,5.27
2022-11-17T02:41:40.193Z,5.60
2022-11-17T02:44:31.814Z,5.80
2022-11-17T02:47:26.506Z,4.93
2022-11-17T02:50:06.371Z,5.27
2022-11-17T02:52:36.309Z,4.40
2022-11-17T02:55:10.253Z,4.43
2022-11-17T02:57:42.467Z,4.90
2022-11-17T03:00:16.744Z,5.57
2022-11-17T03:03:11.945Z,5.53
2022-11-17T03:06:10.399Z,5.17
2022-11-17T03:09:06.972Z,7.27
2022-11-17T03:11:52.331Z,5.57
2022-11-17T03:14:32.510Z,6.17
2022-11-17T03:17:15.259Z,6.50
2022-11-17T03:19:49.334Z,6.00
2022-11-17T03:22:41.672Z,6.58
2022-11-17T03:25:15.728Z,4.90
2022-11-17T03:27:49.342Z,5.67
2022-11-17T03:30:22.239Z,5.53
2022-11-17T03:32:58.836Z,6.90
2022-11-17T03:35:33.170Z,7.83
2022-11-17T03:38:07.230Z,6.37
2022-11-17T03:40:40.521Z,5.73
2022-11-17T03:43:15.073Z,5.30
2022-11-17T03:45:50.781Z,7.13
2022-11-17T03:48:27.640Z,5.33
2022-11-17T03:51:05.775Z,4.97
2022-11-17T03:53:38.262Z,5.33
2022-11-17T03:56:44.550Z,5.93
2022-11-17T03:59:43.902Z,5.60
2022-11-17T04:02:22.344Z,4.93
2022-11-17T04:05:06.640Z,5.90
2022-11-17T04:07:42.402Z,6.07
2022-11-17T04:10:16.126Z,6.03
2022-11-17T04:13:03.968Z,5.70
2022-11-17T04:15:51.549Z,6.83
2022-11-17T04:18:22.298Z,5.53
2022-11-17T04:20:54.658Z,5.60
2022-11-17T04:23:25.673Z,5.90
2022-11-17T04:26:15.990Z,5.60
2022-11-17T04:28:50.217Z,5.70
2022-11-17T04:31:23.778Z,5.93
2022-11-17T04:33:59.352Z,5.60
2022-11-17T04:36:32.874Z,8.50
2022-11-17T04:39:02.858Z,5.20
2022-11-17T04:41:50.581Z,5.30
2022-11-17T04:44:20.739Z,5.70
2022-11-17T04:46:50.356Z,5.87
2022-11-17T04:49:21.506Z,6.87
2022-11-17T04:51:52.666Z,5.97
2022-11-17T04:54:24.906Z,7.30
2022-11-17T04:56:56.268Z,5.77
2022-11-17T04:59:26.334Z,5.93
2022-11-17T05:01:57.848Z,6.83
2022-11-17T05:04:44.748Z,6.70
2022-11-17T05:07:14.294Z,6.80
2022-11-17T05:09:43.708Z,7.60
2022-11-17T05:12:30.931Z,6.90
2022-11-17T05:15:00.442Z,6.73
2022-11-17T05:17:29.896Z,6.03
2022-11-17T05:19:59.506Z,7.90
2022-11-17T05:22:46.639Z,6.97
2022-11-17T05:25:16.084Z,6.13
2022-11-17T05:27:45.539Z,5.90
2022-11-17T05:30:15.849Z,6.57
2022-11-17T05:32:45.292Z,7.33
2022-11-17T05:35:14.885Z,6.20
2022-11-17T05:37:44.329Z,6.97
2022-11-17T05:40:13.939Z,7.63
2022-11-17T05:42:43.436Z,7.23
2022-11-17T05:45:12.939Z,7.80
2022-11-17T05:47:42.391Z,7.40
2022-11-17T05:50:12.270Z,7.63
2022-11-17T05:52:41.716Z,6.03
2022-11-17T05:55:11.228Z,7.87
2022-11-17T05:57:41.814Z,7.40
2022-11-17T06:00:12.288Z,6.20
2022-11-17T06:02:46.346Z,6.63
2022-11-17T06:05:20.158Z,5.67
2022-11-17T06:07:48.127Z,7.40
2022-11-17T06:10:18.419Z,6.77
2022-11-17T06:12:48.095Z,6.60
2022-11-17T06:15:17.542Z,7.60
2022-11-17T06:18:06.326Z,6.80
2022-11-17T06:20:41.171Z,6.50
2022-11-17T06:23:12.712Z,8.43
2022-11-17T06:25:42.877Z,8.10
2022-11-17T06:28:16.859Z,6.63
2022-11-17T06:30:46.540Z,7.97
2022-11-17T06:33:19.277Z,7.00
2022-11-17T06:35:50.472Z,6.60
2022-11-17T06:38:19.908Z,7.57
2022-11-17T06:40:49.421Z,7.73
2022-11-17T06:43:19.007Z,8.30
2022-11-17T06:45:49.192Z,7.27
2022-11-17T06:48:21.584Z,8.97
2022-11-17T06:50:51.035Z,9.63
2022-11-17T06:53:20.534Z,10.50
2022-11-17T06:55:54.547Z,9.53
2022-11-17T06:58:24.053Z,7.90
2022-11-17T07:00:53.605Z,8.30
2022-11-17T07:03:23.104Z,7.73
2022-11-17T07:05:52.529Z,8.07
2022-11-17T07:08:22.652Z,8.33
2022-11-17T07:10:53.723Z,7.10
2022-11-17T07:13:26.242Z,7.40
2022-11-17T07:15:55.671Z,7.67
2022-11-17T07:18:25.805Z,7.43
2022-11-17T07:20:55.251Z,6.43
2022-11-17T07:23:24.695Z,6.70
2022-11-17T07:25:54.998Z,7.40
2022-11-17T07:28:24.606Z,7.63
2022-11-17T07:30:54.442Z,6.20
2022-11-17T07:33:24.739Z,7.10
2022-11-17T07:35:55.944Z,6.00
2022-11-17T07:38:25.522Z,5.47
2022-11-17T07:40:58.358Z,6.60
2022-11-17T07:43:28.007Z,5.47
2022-11-17T07:45:57.767Z,6.07
2022-11-17T07:48:27.219Z,5.90
2022-11-17T07:51:00.423Z,6.00
2022-11-17T07:53:29.948Z,6.17
2022-11-17T07:56:04.236Z,6.23
2022-11-17T07:58:34.981Z,6.70
2022-11-17T08:01:18.020Z,6.10
2022-11-17T08:03:47.649Z,5.60
2022-11-17T08:06:17.353Z,5.27
2022-11-17T08:08:48.697Z,6.03
2022-11-17T08:11:19.369Z,5.80
2022-11-17T08:13:50.092Z,5.90
2022-11-17T08:16:19.697Z,5.13
2022-11-17T08:18:52.412Z,5.00
2022-11-17T08:21:21.281Z,5.35
2022-11-17T08:23:56.215Z,6.87
2022-11-17T08:26:25.818Z,5.60
2022-11-17T08:28:58.836Z,6.73
2022-11-17T08:31:27.036Z,6.63
2022-11-17T08:33:56.474Z,6.07
2022-11-17T08:36:25.921Z,5.47
2022-11-17T08:38:55.354Z,6.63
2022-11-17T08:41:25.761Z,6.87
2022-11-17T08:43:55.199Z,6.40
2022-11-17T08:46:26.379Z,5.43
2022-11-17T08:48:57.300Z,5.97
2022-11-17T08:51:28.477Z,5.97
2022-11-17T08:53:59.831Z,6.30
2022-11-17T08:56:29.263Z,6.13
2022-11-17T08:58:58.703Z,6.13
2022-11-17T09:01:28.190Z,6.03
2022-11-17T09:03:57.661Z,6.40
2022-11-17T09:06:27.095Z,7.30
2022-11-17T09:08:56.854Z,6.40
2022-11-17T09:11:26.314Z,6.17
2022-11-17T09:13:55.879Z,6.23
2022-11-17T09:16:25.335Z,5.70
2022-11-17T09:18:58.624Z,4.87
2022-11-17T09:21:28.809Z,7.10
2022-11-17T09:23:58.266Z,6.33
2022-11-17T09:26:27.775Z,6.10
2022-11-17T09:28:57.310Z,7.57
2022-11-17T09:31:26.781Z,6.50
2022-11-17T09:33:59.408Z,7.60
2022-11-17T09:36:27.837Z,7.97
2022-11-17T09:38:57.283Z,7.10
2022-11-17T09:41:31.428Z,6.73
2022-11-17T09:44:35.955Z,7.03
2022-11-17T09:47:15.631Z,7.90
2022-11-17T09:50:06.675Z,9.23
2022-11-17T09:52:59.292Z,8.63
2022-11-17T09:55:36.165Z,9.20
2022-11-17T09:58:37.830Z,8.20
2022-11-17T10:01:09.807Z,7.30
2022-11-17T10:03:45.434Z,7.87
2022-11-17T10:06:22.584Z,7.70
2022-11-17T10:09:24.057Z,9.07
2022-11-17T10:11:49.493Z,8.33
2022-11-17T10:14:22.820Z,8.23
2022-11-17T10:16:59.705Z,8.57
2022-11-17T10:19:36.217Z,8.17
2022-11-17T10:22:10.258Z,9.77
2022-11-17T10:24:48.146Z,11.77
2022-11-17T10:27:27.579Z,10.73
2022-11-17T10:30:23.498Z,9.47
2022-11-17T10:33:02.787Z,9.73
2022-11-17T10:35:36.448Z,8.13
2022-11-17T10:38:10.540Z,9.73
2022-11-17T10:40:47.674Z,10.23
2022-11-17T10:43:29.194Z,9.60
2022-11-17T10:46:03.258Z,9.90
2022-11-17T10:48:36.073Z,9.53
2022-11-17T10:51:25.010Z,10.20
2022-11-17T10:54:17.606Z,8.83
2022-11-17T10:56:54.763Z,7.43
2022-11-17T10:59:34.221Z,8.70
2022-11-17T11:02:31.845Z,9.67
2022-11-17T11:05:17.206Z,8.60
2022-11-17T11:07:47.021Z,10.00
2022-11-17T11:10:26.272Z,9.23
2022-11-17T11:13:22.559Z,9.23
2022-11-17T11:15:53.513Z,11.23
2022-11-17T11:18:23.436Z,8.80
2022-11-17T11:21:07.668Z,9.88
2022-11-17T11:23:47.805Z,8.13
2022-11-17T11:26:30.458Z,9.10
2022-11-17T11:29:27.871Z,8.23
2022-11-17T11:32:10.903Z,9.27
2022-11-17T11:35:17.544Z,9.50
2022-11-17T11:37:54.322Z,8.10
2022-11-17T11:40:40.317Z,8.53
2022-11-17T11:43:48.800Z,9.37
2022-11-17T11:46:33.975Z,7.17
2022-11-17T11:49:08.291Z,7.00
2022-11-17T11:51:39.821Z,8.50
2022-11-17T11:54:19.458Z,7.10
2022-11-17T11:56:51.031Z,9.07
2022-11-17T11:59:42.689Z,8.67
2022-11-17T12:02:34.597Z,7.67
2022-11-17T12:05:17.082Z,7.63
2022-11-17T12:08:10.153Z,8.80
2022-11-17T12:11:31.704Z,7.70
2022-11-17T12:14:04.793Z,8.83
2022-11-17T12:16:39.179Z,8.60
2022-11-17T12:19:47.022Z,10.13
2022-11-17T12:22:21.075Z,8.00
2022-11-17T12:24:52.144Z,7.87
2022-11-17T12:27:38.406Z,8.13
2022-11-17T12:30:20.895Z,6.93
2022-11-17T12:32:55.580Z,7.40
2022-11-17T12:35:33.588Z,7.40
2022-11-17T12:38:22.954Z,8.90
2022-11-17T12:40:57.239Z,8.93
2022-11-17T12:43:29.865Z,9.00
2022-11-17T12:46:06.857Z,7.70
2022-11-17T12:48:40.131Z,6.90
2022-11-17T12:51:31.922Z,6.13
2022-11-17T12:54:21.039Z,7.33
2022-11-17T12:57:13.360Z,6.33
2022-11-17T13:00:07.892Z,6.63
2022-11-17T13:03:07.546Z,8.87
2022-11-17T13:05:38.138Z,7.53
2022-11-17T13:08:21.484Z,7.60
2022-11-17T13:10:53.089Z,7.07
2022-11-17T13:13:26.448Z,7.07
2022-11-17T13:16:01.918Z,7.40
2022-11-17T13:18:35.946Z,7.27
2022-11-17T13:21:08.428Z,7.33
2022-11-17T13:23:42.492Z,6.37
2022-11-17T13:26:30.126Z,5.90
2022-11-17T13:29:21.287Z,6.00
2022-11-17T13:31:50.792Z,8.03
2022-11-17T13:34:22.068Z,6.67
2022-11-17T13:37:01.064Z,6.93
2022-11-17T13:39:30.965Z,7.07
2022-11-17T13:42:03.182Z,8.50
2022-11-17T13:44:35.161Z,7.03
2022-11-17T13:47:22.409Z,6.50
2022-11-17T13:49:52.087Z,8.93
2022-11-17T13:52:40.602Z,6.37
2022-11-17T13:55:11.163Z,7.37
2022-11-17T13:57:40.687Z,7.43
2022-11-17T14:00:19.605Z,6.30
2022-11-17T14:03:05.727Z,7.33
2022-11-17T14:05:36.045Z,6.33
2022-11-17T14:08:24.081Z,7.13
2022-11-17T14:11:10.012Z,6.33
2022-11-17T14:13:46.837Z,7.23
2022-11-17T14:16:39.508Z,6.10
2022-11-17T14:19:22.845Z,7.07
2022-11-17T14:22:22.299Z,8.10
2022-11-17T14:24:46.026Z,7.77
2022-11-17T14:27:36.523Z,6.87
2022-11-17T14:30:07.388Z,6.70
2022-11-17T14:32:36.837Z,6.67
2022-11-17T14:35:06.655Z,8.47
2022-11-17T14:37:36.119Z,7.50
2022-11-17T14:40:07.743Z,6.90
2022-11-17T14:42:37.184Z,7.07
2022-11-17T14:45:06.937Z,6.87
2022-11-17T14:47:36.525Z,8.47
2022-11-17T14:50:06.747Z,7.13
2022-11-17T14:52:36.391Z,6.57
2022-11-17T14:55:06.363Z,7.37
2022-11-17T14:57:35.798Z,8.83
2022-11-17T15:00:09.259Z,8.45
2022-11-17T15:02:39.334Z,8.10
2022-11-17T15:05:09.530Z,7.43
2022-11-17T15:07:39.766Z,7.93
2022-11-17T15:10:10.310Z,6.20
2022-11-17T15:12:40.125Z,6.27
2022-11-17T15:15:10.150Z,7.70
2022-11-17T15:17:39.683Z,7.70
2022-11-17T15:20:10.241Z,7.47
2022-11-17T15:22:39.676Z,7.03
2022-11-17T15:25:09.885Z,5.40
2022-11-17T15:27:39.312Z,6.67
2022-11-17T15:30:09.731Z,5.90
2022-11-17T15:32:39.349Z,7.47
2022-11-17T15:35:09.135Z,7.20
2022-11-17T15:37:38.563Z,7.50
2022-11-17T15:40:08.999Z,7.10
2022-11-17T15:42:38.439Z,7.03
2022-11-17T15:45:09.555Z,7.30
2022-11-17T15:47:39.012Z,6.40
2022-11-17T15:50:09.261Z,5.90
2022-11-17T15:53:03.117Z,7.80
2022-11-17T15:55:10.263Z,6.00
2022-11-17T15:57:39.697Z,8.77
2022-11-17T16:00:10.433Z,7.77
2022-11-17T16:02:44.173Z,6.20
2022-11-17T16:05:13.640Z,7.10
2022-11-17T16:07:43.256Z,8.63
2022-11-17T16:10:12.689Z,7.83
2022-11-17T16:12:42.128Z,9.03
2022-11-17T16:15:11.784Z,6.63
2022-11-17T16:17:41.209Z,6.20
2022-11-17T16:20:12.161Z,7.00
2022-11-17T16:22:41.584Z,8.10
2022-11-17T16:25:11.196Z,8.87
2022-11-17T16:27:40.632Z,7.33
2022-11-17T16:30:10.622Z,7.57
2022-11-17T16:32:40.122Z,7.93
2022-11-17T16:35:09.838Z,10.33
2022-11-17T16:37:39.277Z,8.23
2022-11-17T16:40:09.627Z,7.03
2022-11-17T16:42:39.896Z,9.07
2022-11-17T16:45:09.881Z,9.60
2022-11-17T16:47:39.309Z,10.30
2022-11-17T16:50:09.204Z,8.93
2022-11-17T16:52:38.659Z,8.40
2022-11-17T16:55:08.853Z,8.30
2022-11-17T16:57:38.282Z,7.73
2022-11-17T17:00:09.064Z,8.40
2022-11-17T17:02:38.709Z,6.53
2022-11-17T17:05:08.436Z,8.87
2022-11-17T17:07:38.136Z,8.23
2022-11-17T17:10:08.117Z,7.93
2022-11-17T17:12:37.713Z,8.80
2022-11-17T17:15:08.027Z,8.40
2022-11-17T17:17:38.430Z,7.27
2022-11-17T17:20:09.859Z,6.80
2022-11-17T17:22:39.294Z,5.97
2022-11-17T17:25:09.883Z,7.37
2022-11-17T17:27:39.388Z,8.50
2022-11-17T17:30:09.348Z,8.40
2022-11-17T17:32:38.784Z,7.43
2022-11-17T17:35:08.671Z,9.17
2022-11-17T17:37:38.104Z,7.87
2022-11-17T17:40:08.759Z,7.27
2022-11-17T17:42:38.208Z,7.20
2022-11-17T17:45:08.166Z,6.17
2022-11-17T17:47:37.605Z,8.37
2022-11-17T17:50:07.564Z,10.30
2022-11-17T17:52:37.070Z,7.83
2022-11-17T17:55:07.044Z,9.50
2022-11-17T17:57:36.481Z,8.37
2022-11-17T18:00:07.106Z,9.90
2022-11-17T18:02:36.618Z,7.73
2022-11-17T18:05:06.198Z,8.13
2022-11-17T18:07:35.737Z,16.17
2022-11-17T18:10:05.303Z,9.03
2022-11-17T18:12:34.741Z,8.87
2022-11-17T18:15:04.261Z,7.57
2022-11-17T18:17:33.695Z,7.93
2022-11-17T18:20:03.486Z,12.10
2022-11-17T18:22:32.924Z,13.73
2022-11-17T18:25:07.400Z,10.80
2022-11-17T18:27:33.532Z,8.30
2022-11-17T18:30:02.984Z,8.67
2022-11-17T18:32:32.483Z,7.20
2022-11-17T18:35:02.312Z,10.20
2022-11-17T18:37:32.021Z,9.77
2022-11-17T18:40:01.466Z,9.53
2022-11-17T18:42:32.775Z,9.60
2022-11-17T18:45:02.242Z,8.60
2022-11-17T18:47:31.670Z,9.97
2022-11-17T18:50:01.118Z,8.53
2022-11-17T18:52:31.613Z,8.87
2022-11-17T18:55:01.361Z,8.17
2022-11-17T18:57:30.896Z,11.23
2022-11-17T19:00:00.351Z,11.70
2022-11-17T19:02:29.855Z,10.67
2022-11-17T19:04:59.385Z,9.37
2022-11-17T19:07:28.942Z,8.40
2022-11-17T19:09:58.448Z,9.67
2022-11-17T19:12:27.953Z,9.07
2022-11-17T19:14:57.463Z,9.97
2022-11-17T19:17:26.875Z,9.40
2022-11-17T19:19:56.403Z,8.23
2022-11-17T19:22:25.861Z,7.87
2022-11-17T19:24:55.303Z,7.73
2022-11-17T19:27:24.739Z,6.80
2022-11-17T19:29:54.174Z,8.57
2022-11-17T19:32:23.687Z,8.80
2022-11-17T19:34:54.185Z,7.73
2022-11-17T19:37:23.683Z,9.40
2022-11-17T19:39:53.271Z,9.03
2022-11-17T19:42:22.701Z,8.07
2022-11-17T19:44:52.172Z,8.83
2022-11-17T19:47:21.608Z,11.03
2022-11-17T19:49:51.064Z,8.30
2022-11-17T19:52:21.950Z,6.83
2022-11-17T19:54:51.395Z,8.20
2022-11-17T19:57:21.578Z,8.83
2022-11-17T19:59:51.023Z,9.13
2022-11-17T20:02:20.466Z,9.43
2022-11-17T20:04:49.958Z,7.97
2022-11-17T20:07:19.428Z,7.87
2022-11-17T20:09:48.909Z,9.30
2022-11-17T20:12:18.412Z,8.60
2022-11-17T20:14:47.863Z,8.67
2022-11-17T20:17:17.298Z,10.37
2022-11-17T20:19:46.764Z,11.23
2022-11-17T20:22:17.473Z,12.10
2022-11-17T20:24:46.943Z,10.97
2022-11-17T20:27:16.368Z,11.33
2022-11-17T20:29:45.826Z,10.60
2022-11-17T20:32:15.270Z,9.87
2022-11-17T20:34:44.716Z,9.77
2022-11-17T20:37:14.228Z,13.07
2022-11-17T20:39:43.681Z,11.93
2022-11-17T20:42:14.744Z,9.83
2022-11-17T20:44:44.468Z,11.00
2022-11-17T20:47:13.895Z,11.33
2022-11-17T20:49:43.349Z,10.47
2022-11-17T20:52:13.597Z,13.97
2022-11-17T20:54:43.126Z,12.47
2022-11-17T20:57:12.557Z,11.53
2022-11-17T20:59:42.008Z,12.80
2022-11-17T21:02:12.981Z,10.82
2022-11-17T21:04:42.459Z,12.37
2022-11-17T21:07:11.932Z,11.97
2022-11-17T21:09:41.426Z,12.80
2022-11-17T21:12:10.862Z,10.40
2022-11-17T21:14:40.308Z,10.03
2022-11-17T21:17:11.410Z,10.13
2022-11-17T21:19:40.831Z,14.17
2022-11-17T21:22:10.259Z,10.87
2022-11-17T21:24:39.723Z,10.90
2022-11-17T21:27:09.177Z,10.77
2022-11-17T21:29:38.636Z,11.37
2022-11-17T21:32:08.155Z,11.80
2022-11-17T21:34:37.613Z,10.50
2022-11-17T21:37:07.055Z,10.20
2022-11-17T21:39:36.605Z,11.60
2022-11-17T21:42:06.043Z,11.53
2022-11-17T21:44:35.500Z,10.13
2022-11-17T21:47:04.944Z,9.40
2022-11-17T21:49:34.467Z,10.63
2022-11-17T21:52:03.914Z,9.53
2022-11-17T21:54:33.361Z,10.37
2022-11-17T21:57:02.794Z,8.90
2022-11-17T21:59:32.235Z,9.57
2022-11-17T22:02:01.675Z,9.97
2022-11-17T22:04:31.176Z,7.87
2022-11-17T22:07:00.632Z,8.00
2022-11-17T22:09:30.082Z,9.43
2022-11-17T22:11:59.530Z,11.03
2022-11-17T22:14:29.144Z,9.63
2022-11-17T22:16:58.589Z,11.87
2022-11-17T22:19:29.670Z,8.70
2022-11-17T22:21:59.114Z,8.40
2022-11-17T22:24:28.556Z,8.37
2022-11-17T22:26:58.063Z,8.03
2022-11-17T22:29:27.516Z,7.47
2022-11-17T22:31:57.017Z,7.60
2022-11-17T22:34:26.457Z,9.77
2022-11-17T22:36:55.895Z,7.50
2022-11-17T22:39:25.340Z,8.27
2022-11-17T22:41:54.779Z,8.37
2022-11-17T22:44:24.890Z,7.13
2022-11-17T22:46:54.331Z,7.60
2022-11-17T22:49:23.760Z,8.00
2022-11-17T22:52:07.137Z,6.53
2022-11-17T22:54:37.884Z,8.80
2022-11-17T22:57:07.593Z,9.13
2022-11-17T22:59:37.039Z,7.40
2022-11-17T23:02:06.477Z,7.20
2022-11-17T23:04:36.595Z,7.10
2022-11-17T23:07:06.104Z,6.17
2022-11-17T23:09:35.574Z,9.07
2022-11-17T23:12:04.991Z,9.57
2022-11-17T23:14:34.443Z,9.87
2022-11-17T23:17:03.872Z,9.63
2022-11-17T23:19:33.322Z,8.47
2022-11-17T23:22:02.774Z,8.40
2022-11-17T23:24:32.473Z,8.93
2022-11-17T23:27:01.918Z,9.43
2022-11-17T23:29:31.348Z,9.40
2022-11-17T23:32:00.806Z,8.40
2022-11-17T23:34:30.231Z,9.83
2022-11-17T23:37:03.721Z,8.47
2022-11-17T23:39:30.993Z,12.40
2022-11-17T23:42:00.440Z,11.47
2022-11-17T23:44:30.201Z,9.40
2022-11-17T23:46:59.658Z,9.80
2022-11-17T23:49:29.089Z,9.67
2022-11-17T23:51:58.523Z,9.17
2022-11-17T23:54:27.948Z,10.93
2022-11-17T23:56:57.519Z,7.80
2022-11-17T23:59:26.956Z,9.73
